Time;durP1;ratioP1;P1;durP2;ratioP2;P2;SDS_P1;SDS_P2;PMS_P1;PMS_P2;Temp;Humidity;BMP_temperature;BMP_pressure;BME280_temperature;BME280_humidity;BME280_pressure;Samples;Min_cycle;Max_cycle;Signal;HPM_P1;HPM_P2
2023/08/09 00:00:04;;;;;;;2.80;1.80;;;16.90;68.60;;;;;;5053446;28;20923;-68
2023/08/09 00:02:33;;;;;;;4.00;1.53;;;16.90;68.60;;;;;;5053765;28;20786;-68
2023/08/09 00:05:00;;;;;;;3.00;2.27;;;16.90;68.40;;;;;;5053602;28;20485;-68
2023/08/09 00:07:27;;;;;;;3.30;1.30;;;16.90;68.30;;;;;;5052943;28;20481;-68
2023/08/09 00:09:56;;;;;;;3.37;1.77;;;16.90;69.40;;;;;;5052869;28;20594;-69
2023/08/09 00:12:23;;;;;;;3.87;2.07;;;16.80;70.00;;;;;;5033616;28;20421;-68
2023/08/09 00:14:52;;;;;;;3.20;1.67;;;16.80;70.50;;;;;;5033257;28;20984;-68
2023/08/09 00:17:19;;;;;;;3.23;1.60;;;16.80;70.70;;;;;;5048300;28;20483;-69
2023/08/09 00:19:47;;;;;;;2.93;1.70;;;16.80;71.00;;;;;;5053433;28;20460;-68
2023/08/09 00:22:16;;;;;;;3.03;1.70;;;16.80;71.30;;;;;;5053079;28;20839;-68
2023/08/09 00:24:44;;;;;;;3.80;1.90;;;16.70;71.30;;;;;;5053327;28;20522;-68
2023/08/09 00:27:11;;;;;;;2.60;1.53;;;16.70;70.90;;;;;;5052866;28;20528;-68
2023/08/09 00:29:38;;;;;;;4.77;1.40;;;16.70;71.20;;;;;;5053026;28;20487;-68
2023/08/09 00:32:05;;;;;;;4.03;1.40;;;16.70;71.50;;;;;;5053360;28;20429;-68
2023/08/09 00:34:32;;;;;;;3.90;2.27;;;16.60;71.50;;;;;;5053329;28;20433;-68
2023/08/09 00:37:01;;;;;;;5.23;2.87;;;16.60;71.40;;;;;;5052588;28;20575;-68
2023/08/09 00:39:29;;;;;;;6.53;3.07;;;16.60;71.40;;;;;;5052795;28;20437;-68
2023/08/09 00:41:57;;;;;;;5.77;2.67;;;16.60;71.50;;;;;;5053241;28;20433;-68
2023/08/09 00:44:24;;;;;;;4.40;2.57;;;16.50;72.00;;;;;;5053081;28;20463;-68
2023/08/09 00:46:51;;;;;;;4.87;2.60;;;16.50;72.20;;;;;;5052836;28;20469;-68
2023/08/09 00:49:18;;;;;;;4.40;2.37;;;16.50;73.00;;;;;;5052898;28;20916;-68
2023/08/09 00:51:46;;;;;;;5.10;2.30;;;16.50;73.00;;;;;;5054481;28;20502;-68
2023/08/09 00:54:15;;;;;;;5.20;2.50;;;16.50;72.60;;;;;;5056765;28;20514;-68
2023/08/09 00:56:43;;;;;;;4.70;2.80;;;16.50;72.70;;;;;;5056423;28;20467;-68
2023/08/09 00:59:10;;;;;;;4.60;2.50;;;16.50;72.40;;;;;;5056976;28;20475;-70
2023/08/09 01:01:37;;;;;;;3.57;2.87;;;16.60;72.70;;;;;;5056686;28;20476;-68
2023/08/09 01:04:04;;;;;;;3.23;2.10;;;16.50;73.60;;;;;;5056240;28;21016;-68
2023/08/09 01:06:38;;;;;;;4.63;2.30;;;16.50;74.80;;;;;;5055889;28;20944;-68
2023/08/09 01:09:15;;;;;;;4.10;1.93;;;16.50;75.20;;;;;;5056806;28;20451;-68
2023/08/09 01:11:53;;;;;;;4.10;1.80;;;16.50;75.30;;;;;;5056311;28;20503;-69
2023/08/09 01:14:22;;;;;;;4.00;2.10;;;16.50;75.80;;;;;;5056383;28;20424;-68
2023/08/09 01:16:52;;;;;;;2.93;1.50;;;16.50;75.90;;;;;;5055916;28;20471;-68
2023/08/09 01:19:32;;;;;;;3.03;1.60;;;16.60;76.20;;;;;;5056624;28;20533;-68
2023/08/09 01:22:05;;;;;;;8.63;2.40;;;16.50;75.80;;;;;;5056846;28;20486;-69
2023/08/09 01:24:34;;;;;;;3.40;1.70;;;16.50;75.80;;;;;;5056364;28;20468;-68
2023/08/09 01:27:01;;;;;;;5.33;2.00;;;16.60;75.70;;;;;;5056158;28;20531;-68
2023/08/09 01:29:28;;;;;;;4.70;1.87;;;16.50;75.30;;;;;;5056489;28;20844;-68
2023/08/09 01:31:55;;;;;;;3.10;1.70;;;16.60;74.50;;;;;;5056404;28;20445;-68
2023/08/09 01:34:22;;;;;;;4.30;1.93;;;16.50;74.40;;;;;;5056374;28;20436;-68
2023/08/09 01:36:51;;;;;;;3.70;2.20;;;16.50;74.40;;;;;;5056125;28;20583;-70
2023/08/09 01:39:22;;;;;;;5.13;2.63;;;16.50;74.50;;;;;;5056340;28;20472;-68
2023/08/09 01:41:51;;;;;;;3.50;2.03;;;16.50;74.80;;;;;;5056017;28;20422;-68
2023/08/09 01:44:18;;;;;;;4.73;2.20;;;16.50;74.70;;;;;;5055988;28;20492;-68
2023/08/09 01:46:45;;;;;;;3.83;1.77;;;16.40;73.70;;;;;;5055864;28;20479;-68
2023/08/09 01:49:14;;;;;;;4.50;2.37;;;16.30;73.50;;;;;;5055847;28;20478;-68
2023/08/09 01:51:41;;;;;;;3.60;1.90;;;16.20;73.60;;;;;;5055647;28;20499;-68
2023/08/09 01:54:11;;;;;;;4.03;2.13;;;16.00;74.70;;;;;;5055969;28;20840;-68
2023/08/09 01:56:39;;;;;;;3.20;1.67;;;15.90;75.00;;;;;;5055585;28;20464;-68
2023/08/09 01:59:08;;;;;;;5.53;1.80;;;15.90;75.30;;;;;;5055235;28;20879;-70
2023/08/09 02:01:36;;;;;;;3.00;1.33;;;15.90;75.40;;;;;;5049424;28;20501;-68
2023/08/09 02:04:03;;;;;;;3.23;1.67;;;15.90;75.30;;;;;;5055119;28;20483;-69
2023/08/09 02:06:32;;;;;;;5.50;1.50;;;15.90;74.90;;;;;;5055169;28;20484;-68
2023/08/09 02:08:59;;;;;;;2.80;1.50;;;16.00;74.50;;;;;;5055262;28;20991;-68
2023/08/09 02:11:26;;;;;;;4.90;1.80;;;16.10;74.50;;;;;;5055709;28;20464;-68
2023/08/09 02:13:53;;;;;;;6.17;1.40;;;16.20;73.80;;;;;;5055626;28;20536;-68
2023/08/09 02:16:21;;;;;;;2.90;1.57;;;16.10;72.90;;;;;;5054869;28;20473;-68
2023/08/09 02:18:49;;;;;;;3.93;1.97;;;16.10;73.70;;;;;;5055166;28;20465;-68
2023/08/09 02:21:16;;;;;;;6.43;2.37;;;16.10;73.60;;;;;;5055588;28;20791;-68
2023/08/09 02:23:43;;;;;;;9.97;2.10;;;16.10;73.60;;;;;;5055281;28;20498;-68
2023/08/09 02:26:10;;;;;;;4.70;1.37;;;16.20;73.20;;;;;;5054645;28;20469;-68
2023/08/09 02:28:37;;;;;;;3.00;1.90;;;16.10;72.70;;;;;;5055330;28;20523;-68
2023/08/09 02:31:04;;;;;;;3.60;1.80;;;15.90;73.60;;;;;;5054389;28;20502;-68
2023/08/09 02:33:32;;;;;;;5.37;2.00;;;16.00;73.50;;;;;;5054039;28;20448;-68
2023/08/09 02:36:01;;;;;;;3.90;1.60;;;16.00;73.60;;;;;;5055176;28;20436;-68
2023/08/09 02:38:29;;;;;;;3.23;2.07;;;16.10;73.50;;;;;;5054892;28;20504;-68
2023/08/09 02:40:56;;;;;;;2.90;1.90;;;16.00;73.50;;;;;;5054768;28;20527;-68
2023/08/09 02:43:25;;;;;;;3.60;2.00;;;15.90;74.10;;;;;;5054496;28;20476;-68
2023/08/09 02:45:52;;;;;;;5.23;1.80;;;16.00;73.60;;;;;;5054717;28;20477;-68
2023/08/09 02:48:19;;;;;;;3.30;1.80;;;16.00;73.10;;;;;;5055170;28;20536;-68
2023/08/09 02:50:48;;;;;;;4.47;1.70;;;16.10;73.10;;;;;;5054616;28;20477;-68
2023/08/09 02:53:16;;;;;;;3.93;2.27;;;16.20;72.60;;;;;;5054823;28;20848;-68
2023/08/09 02:55:44;;;;;;;3.23;1.70;;;16.10;71.60;;;;;;5054383;28;20431;-68
2023/08/09 02:58:11;;;;;;;2.67;1.30;;;16.10;71.60;;;;;;5054775;28;20514;-68
2023/08/09 03:00:38;;;;;;;2.53;1.40;;;16.10;71.60;;;;;;5054048;28;20440;-68
2023/08/09 03:03:05;;;;;;;2.73;1.37;;;16.10;71.60;;;;;;5054405;28;20465;-68
2023/08/09 03:05:35;;;;;;;3.13;1.63;;;16.20;71.40;;;;;;5054327;28;20843;-68
2023/08/09 03:08:03;;;;;;;2.73;1.50;;;16.10;71.70;;;;;;5054135;28;20441;-68
2023/08/09 03:10:31;;;;;;;2.73;1.60;;;16.20;71.70;;;;;;5053722;28;20499;-68
2023/08/09 03:12:58;;;;;;;6.30;2.10;;;16.30;71.50;;;;;;5054500;28;20441;-68
2023/08/09 03:15:25;;;;;;;3.93;1.80;;;16.30;71.60;;;;;;5053111;28;20479;-68
2023/08/09 03:17:52;;;;;;;2.90;1.50;;;16.30;71.80;;;;;;5054338;28;20904;-68
2023/08/09 03:20:19;;;;;;;3.43;1.77;;;16.40;71.80;;;;;;5054297;28;20811;-68
2023/08/09 03:22:48;;;;;;;4.57;1.90;;;16.40;71.80;;;;;;5054253;28;20468;-68
2023/08/09 03:25:17;;;;;;;3.07;1.57;;;16.30;71.80;;;;;;5054478;28;20440;-68
2023/08/09 03:27:44;;;;;;;2.40;1.43;;;16.20;72.60;;;;;;5053865;28;20935;-68
2023/08/09 03:30:12;;;;;;;4.00;1.87;;;16.20;72.80;;;;;;5053570;28;20462;-68
2023/08/09 03:32:39;;;;;;;4.23;1.60;;;16.20;73.00;;;;;;5054382;28;20461;-68
2023/08/09 03:35:07;;;;;;;5.20;2.33;;;16.20;72.80;;;;;;5054110;28;20866;-68
2023/08/09 03:37:36;;;;;;;3.20;1.70;;;16.20;73.10;;;;;;5053731;28;20534;-68
2023/08/09 03:40:07;;;;;;;3.03;1.80;;;16.20;73.40;;;;;;5053374;28;20442;-68
2023/08/09 03:42:36;;;;;;;3.57;1.87;;;16.20;74.10;;;;;;5053932;28;20467;-68
2023/08/09 03:45:03;;;;;;;5.60;2.23;;;16.30;73.50;;;;;;5053580;28;20486;-68
2023/08/09 03:47:30;;;;;;;5.23;2.50;;;16.30;74.10;;;;;;5053522;28;20529;-68
2023/08/09 03:49:57;;;;;;;2.67;1.53;;;16.20;74.30;;;;;;5053617;28;20982;-68
2023/08/09 03:52:24;;;;;;;3.97;2.77;;;16.30;74.60;;;;;;5052594;28;20516;-70
2023/08/09 03:54:52;;;;;;;4.10;2.37;;;16.40;74.70;;;;;;5053651;28;20815;-68
2023/08/09 03:57:21;;;;;;;2.93;1.63;;;16.30;75.00;;;;;;5053728;28;20533;-68
2023/08/09 03:59:50;;;;;;;4.20;1.40;;;16.20;76.00;;;;;;5053305;28;20441;-68
2023/08/09 04:02:17;;;;;;;3.90;2.13;;;16.10;76.90;;;;;;5053322;28;20446;-68
2023/08/09 04:04:44;;;;;;;3.97;2.00;;;16.10;77.10;;;;;;5053761;28;20436;-68
2023/08/09 04:07:11;;;;;;;6.20;2.47;;;16.10;77.50;;;;;;5052486;28;20800;-68
2023/08/09 04:09:38;;;;;;;3.50;1.40;;;16.00;77.70;;;;;;5053324;28;20462;-69
2023/08/09 04:12:06;;;;;;;3.50;2.23;;;16.10;78.00;;;;;;5053110;28;21020;-68
2023/08/09 04:14:33;;;;;;;3.87;2.00;;;16.10;77.90;;;;;;5053697;28;20460;-68
2023/08/09 04:17:04;;;;;;;5.23;2.70;;;16.10;77.80;;;;;;5053433;28;20467;-68
2023/08/09 04:19:31;;;;;;;3.90;2.47;;;16.20;78.10;;;;;;5053686;28;20507;-68
2023/08/09 04:21:58;;;;;;;3.57;2.07;;;16.30;78.30;;;;;;5052842;28;21020;-68
2023/08/09 04:24:25;;;;;;;3.67;2.30;;;16.30;78.40;;;;;;5053091;28;20556;-69
2023/08/09 04:26:53;;;;;;;4.07;2.40;;;16.30;78.20;;;;;;5054583;28;20479;-68
2023/08/09 04:29:20;;;;;;;4.57;2.60;;;16.30;79.00;;;;;;5057936;28;20437;-68
2023/08/09 04:31:48;;;;;;;3.80;2.37;;;16.30;79.80;;;;;;5057225;28;20473;-68
2023/08/09 04:34:16;;;;;;;3.00;1.37;;;16.40;79.70;;;;;;5057162;28;20473;-68
2023/08/09 04:36:44;;;;;;;3.27;2.20;;;16.40;78.10;;;;;;5057211;28;20472;-68
2023/08/09 04:39:12;;;;;;;4.57;2.00;;;16.40;77.00;;;;;;5057305;28;20507;-68
2023/08/09 04:41:38;;;;;;;3.70;2.30;;;16.30;77.40;;;;;;5056986;28;20850;-69
2023/08/09 04:44:06;;;;;;;3.27;2.20;;;16.20;77.70;;;;;;5057305;28;20475;-68
2023/08/09 04:46:33;;;;;;;4.63;1.80;;;16.30;78.30;;;;;;5056726;28;20614;-69
2023/08/09 04:49:00;;;;;;;3.60;1.87;;;16.30;78.40;;;;;;5056873;28;20531;-68
2023/08/09 04:51:29;;;;;;;7.10;2.80;;;16.30;79.00;;;;;;5056770;28;20442;-68
2023/08/09 04:53:56;;;;;;;5.80;2.80;;;16.30;79.70;;;;;;5056619;28;20467;-68
2023/08/09 04:56:23;;;;;;;4.30;2.83;;;16.40;80.00;;;;;;5057055;28;20502;-68
2023/08/09 04:58:50;;;;;;;4.43;2.20;;;16.30;80.00;;;;;;5056914;28;20563;-68
2023/08/09 05:01:17;;;;;;;6.60;3.17;;;16.20;80.50;;;;;;5056875;28;20444;-68
2023/08/09 05:03:44;;;;;;;6.80;2.73;;;16.10;81.50;;;;;;5056416;28;20527;-69
2023/08/09 05:06:11;;;;;;;7.07;3.80;;;16.00;81.80;;;;;;5056863;28;20463;-68
2023/08/09 05:08:39;;;;;;;6.70;2.50;;;16.10;82.50;;;;;;5056329;28;20868;-68
2023/08/09 05:11:06;;;;;;;4.63;2.30;;;16.10;81.80;;;;;;5056830;28;20874;-68
2023/08/09 05:13:33;;;;;;;5.47;3.87;;;16.20;82.00;;;;;;5056280;28;20519;-68
2023/08/09 05:16:00;;;;;;;3.77;2.30;;;16.20;82.80;;;;;;5056312;28;20933;-68
2023/08/09 05:18:27;;;;;;;5.10;3.10;;;16.20;82.50;;;;;;5056178;28;20516;-68
2023/08/09 05:20:53;;;;;;;4.20;2.47;;;16.20;82.40;;;;;;5054071;28;20475;-68
2023/08/09 05:23:21;;;;;;;3.40;2.43;;;16.20;82.80;;;;;;5055992;28;20475;-68
2023/08/09 05:25:49;;;;;;;3.30;2.03;;;16.20;83.20;;;;;;5055576;28;20530;-68
2023/08/09 05:28:16;;;;;;;3.83;2.00;;;16.20;83.30;;;;;;5055961;28;20520;-68
2023/08/09 05:30:43;;;;;;;3.30;1.77;;;16.20;83.40;;;;;;5055341;28;20589;-68
2023/08/09 05:33:10;;;;;;;3.17;2.00;;;16.00;84.90;;;;;;5055293;28;20441;-70
2023/08/09 05:35:37;;;;;;;5.30;2.33;;;16.00;86.10;;;;;;5053821;28;20495;-69
2023/08/09 05:38:04;;;;;;;2.90;1.80;;;16.00;85.40;;;;;;5034370;28;20903;-68
2023/08/09 05:40:31;;;;;;;3.27;2.10;;;16.00;85.30;;;;;;5035788;28;20451;-68
2023/08/09 05:42:59;;;;;;;5.20;2.23;;;16.10;85.30;;;;;;5035399;28;20477;-68
2023/08/09 05:45:27;;;;;;;4.93;1.97;;;16.10;85.40;;;;;;5051577;28;20696;-68
2023/08/09 05:47:54;;;;;;;4.30;2.50;;;16.10;85.20;;;;;;5055404;28;20440;-68
2023/08/09 05:50:21;;;;;;;3.70;2.40;;;16.20;84.90;;;;;;5055422;28;20463;-68
2023/08/09 05:52:48;;;;;;;4.20;2.23;;;16.20;85.00;;;;;;5055340;28;20474;-68
2023/08/09 05:55:15;;;;;;;3.27;2.37;;;16.20;84.80;;;;;;5054584;28;20479;-69
2023/08/09 05:57:42;;;;;;;3.70;1.80;;;16.20;84.20;;;;;;5054844;28;20471;-68
2023/08/09 06:00:16;;;;;;;3.60;1.40;;;16.30;84.50;;;;;;5055137;28;20516;-69
2023/08/09 06:02:44;;;;;;;3.43;1.77;;;16.40;85.00;;;;;;5055256;28;20773;-70
2023/08/09 06:05:16;;;;;;;8.07;2.80;;;16.40;84.70;;;;;;5054760;28;20522;-68
2023/08/09 06:07:43;;;;;;;2.83;1.70;;;16.40;85.10;;;;;;5055158;28;20437;-68
2023/08/09 06:10:10;;;;;;;2.80;1.63;;;16.50;85.10;;;;;;5053915;28;20512;-68
2023/08/09 06:12:37;;;;;;;5.47;2.30;;;16.60;84.30;;;;;;5054404;28;20515;-68
2023/08/09 06:15:05;;;;;;;3.17;2.17;;;16.60;84.90;;;;;;5054597;28;20534;-68
2023/08/09 06:17:34;;;;;;;3.83;2.50;;;16.50;83.20;;;;;;5054418;28;20433;-68
2023/08/09 06:20:01;;;;;;;6.27;2.17;;;16.50;83.70;;;;;;5054576;28;20527;-69
2023/08/09 06:22:28;;;;;;;3.23;1.97;;;16.40;84.20;;;;;;5054750;28;20520;-68
2023/08/09 06:24:54;;;;;;;3.90;2.60;;;16.40;84.20;;;;;;5054695;28;20449;-68
2023/08/09 06:27:21;;;;;;;6.80;2.70;;;16.40;84.70;;;;;;5054079;28;20483;-69
2023/08/09 06:29:48;;;;;;;3.70;2.17;;;16.30;84.90;;;;;;5054622;28;20527;-70
2023/08/09 06:32:15;;;;;;;3.10;2.30;;;16.30;85.50;;;;;;5054254;28;20834;-68
2023/08/09 06:34:44;;;;;;;6.10;3.60;;;16.40;86.00;;;;;;5054169;28;20532;-68
2023/08/09 06:37:10;;;;;;;4.80;2.37;;;16.30;86.50;;;;;;5053896;28;20523;-68
2023/08/09 06:39:37;;;;;;;5.80;2.17;;;16.40;86.60;;;;;;5053582;28;20574;-68
2023/08/09 06:42:04;;;;;;;3.20;2.30;;;16.40;86.60;;;;;;5053504;28;20480;-68
2023/08/09 06:44:31;;;;;;;4.33;2.10;;;16.40;86.90;;;;;;5054127;28;20479;-68
2023/08/09 06:46:59;;;;;;;3.10;1.60;;;16.40;87.60;;;;;;5054177;28;20852;-68
2023/08/09 06:49:26;;;;;;;2.63;1.97;;;16.40;87.90;;;;;;5053933;28;20523;-68
2023/08/09 06:51:55;;;;;;;3.30;1.60;;;16.50;88.10;;;;;;5052549;28;20518;-68
2023/08/09 06:54:22;;;;;;;4.70;2.23;;;16.50;86.30;;;;;;5053709;28;20528;-69
2023/08/09 06:56:49;;;;;;;3.63;1.80;;;16.50;86.80;;;;;;5052356;28;20527;-70
2023/08/09 06:59:16;;;;;;;3.03;1.60;;;16.60;86.90;;;;;;5053109;28;20504;-68
2023/08/09 07:01:43;;;;;;;3.57;1.77;;;16.50;86.90;;;;;;5053441;28;20490;-68
2023/08/09 07:04:10;;;;;;;3.03;1.63;;;16.50;86.70;;;;;;5053952;28;20443;-68
2023/08/09 07:06:37;;;;;;;4.00;2.53;;;16.60;86.70;;;;;;5054042;28;20906;-69
2023/08/09 07:09:06;;;;;;;3.47;1.77;;;16.60;86.70;;;;;;5054563;28;20475;-68
2023/08/09 07:11:33;;;;;;;3.37;2.00;;;16.60;87.00;;;;;;5054290;28;20539;-68
2023/08/09 07:14:01;;;;;;;3.70;2.30;;;16.70;87.70;;;;;;5054440;28;20468;-69
2023/08/09 07:16:28;;;;;;;4.70;2.00;;;16.80;88.10;;;;;;5054107;28;20433;-68
2023/08/09 07:18:55;;;;;;;3.30;1.83;;;16.80;88.00;;;;;;5054300;28;21033;-68
2023/08/09 07:21:23;;;;;;;3.60;1.90;;;16.80;88.60;;;;;;5054332;28;20512;-69
2023/08/09 07:23:49;;;;;;;5.70;2.13;;;16.90;89.00;;;;;;5054311;28;20445;-68
2023/08/09 07:26:18;;;;;;;3.23;1.87;;;16.90;89.60;;;;;;5054279;28;20476;-68
2023/08/09 07:28:44;;;;;;;3.50;1.93;;;16.90;88.80;;;;;;5053915;28;20513;-68
2023/08/09 07:31:18;;;;;;;4.70;1.90;;;16.90;88.90;;;;;;5053857;28;20519;-70
2023/08/09 07:33:45;;;;;;;2.63;2.00;;;17.00;89.70;;;;;;5054177;28;20751;-68
2023/08/09 07:36:11;;;;;;;3.47;2.20;;;17.00;90.00;;;;;;5054281;28;20520;-68
2023/08/09 07:38:38;;;;;;;4.60;2.67;;;17.00;90.20;;;;;;5053865;28;20563;-68
2023/08/09 07:41:06;;;;;;;5.47;2.80;;;17.10;90.50;;;;;;5054045;28;20473;-68
2023/08/09 07:43:34;;;;;;;4.53;2.57;;;17.10;90.50;;;;;;5053692;28;20494;-68
2023/08/09 07:46:04;;;;;;;4.07;2.30;;;17.10;90.70;;;;;;5053982;28;20523;-68
2023/08/09 07:48:31;;;;;;;4.43;2.60;;;17.10;90.60;;;;;;5053573;28;20438;-68
2023/08/09 07:50:57;;;;;;;3.20;1.97;;;17.10;90.80;;;;;;5053820;28;20519;-68
2023/08/09 07:53:25;;;;;;;3.73;2.73;;;17.20;90.90;;;;;;5053750;28;20464;-68
2023/08/09 07:55:52;;;;;;;3.60;2.40;;;17.20;90.80;;;;;;5053728;28;20523;-69
2023/08/09 07:58:19;;;;;;;3.70;2.00;;;17.20;90.90;;;;;;5053715;28;20658;-68
2023/08/09 08:00:47;;;;;;;5.20;3.17;;;17.30;91.10;;;;;;5053471;28;20440;-68
2023/08/09 08:03:14;;;;;;;4.00;2.60;;;17.30;91.30;;;;;;5053525;28;20491;-68
2023/08/09 08:05:41;;;;;;;5.37;2.77;;;17.40;91.50;;;;;;5053332;28;20437;-68
2023/08/09 08:08:08;;;;;;;4.60;1.90;;;17.40;91.60;;;;;;5053302;28;20949;-68
2023/08/09 08:10:35;;;;;;;3.63;2.33;;;17.50;91.50;;;;;;5053611;28;20493;-69
2023/08/09 08:13:02;;;;;;;4.20;2.70;;;17.50;91.60;;;;;;5053260;28;20904;-68
2023/08/09 08:15:29;;;;;;;7.20;2.27;;;17.60;91.70;;;;;;5053493;28;20508;-68
2023/08/09 08:17:57;;;;;;;3.60;2.70;;;17.70;91.80;;;;;;5053486;28;20488;-69
2023/08/09 08:20:24;;;;;;;3.27;2.27;;;17.70;92.30;;;;;;5053372;28;20557;-68
2023/08/09 08:22:51;;;;;;;8.60;2.70;;;17.80;92.70;;;;;;5053052;28;20964;-68
2023/08/09 08:25:19;;;;;;;2.90;2.00;;;17.90;92.90;;;;;;5053047;28;20476;-68
2023/08/09 08:27:47;;;;;;;3.70;2.33;;;17.90;91.80;;;;;;5053592;28;20525;-68
2023/08/09 08:30:16;;;;;;;4.30;2.60;;;18.00;91.60;;;;;;5053659;28;20525;-68
2023/08/09 08:32:44;;;;;;;4.93;3.07;;;18.10;91.70;;;;;;5053117;28;20811;-68
2023/08/09 08:35:13;;;;;;;4.37;2.17;;;18.10;91.40;;;;;;5053463;28;20461;-68
2023/08/09 08:37:41;;;;;;;4.30;2.33;;;18.20;91.20;;;;;;5053359;28;20517;-68
2023/08/09 08:40:17;;;;;;;4.33;2.30;;;18.20;91.10;;;;;;5053036;28;20967;-68
2023/08/09 08:42:44;;;;;;;3.27;2.10;;;18.30;91.00;;;;;;5053578;28;20425;-68
2023/08/09 08:45:12;;;;;;;4.67;2.03;;;18.30;91.10;;;;;;5053028;28;20478;-68
2023/08/09 08:47:40;;;;;;;4.03;2.17;;;18.30;91.40;;;;;;5053195;28;20470;-68
2023/08/09 08:50:08;;;;;;;3.60;2.30;;;18.40;91.30;;;;;;5052900;28;20932;-69
2023/08/09 08:52:39;;;;;;;5.53;2.30;;;18.30;90.50;;;;;;5053184;28;20468;-68
2023/08/09 08:55:07;;;;;;;3.43;2.07;;;18.30;88.90;;;;;;5053088;28;20420;-68
2023/08/09 08:57:34;;;;;;;2.90;2.13;;;18.30;88.00;;;;;;5053202;28;20429;-68
2023/08/09 09:00:05;;;;;;;5.57;2.50;;;18.30;88.20;;;;;;5052731;28;21008;-68
2023/08/09 09:02:32;;;;;;;3.87;1.90;;;18.30;88.20;;;;;;5052801;28;20509;-68
2023/08/09 09:04:59;;;;;;;3.80;1.93;;;18.30;89.60;;;;;;5053140;28;20536;-69
2023/08/09 09:07:27;;;;;;;2.63;1.63;;;18.30;88.80;;;;;;5053275;28;20469;-68
2023/08/09 09:10:04;;;;;;;3.27;2.10;;;18.30;85.80;;;;;;5052916;28;20495;-68
2023/08/09 09:12:34;;;;;;;5.80;2.23;;;18.30;86.00;;;;;;5053620;28;20428;-68
2023/08/09 09:15:03;;;;;;;5.43;2.00;;;18.40;85.90;;;;;;5056723;28;20433;-68
2023/08/09 09:17:30;;;;;;;3.80;2.00;;;18.40;85.50;;;;;;5056408;28;20444;-69
2023/08/09 09:19:57;;;;;;;2.87;1.90;;;18.40;83.20;;;;;;5056607;28;20560;-69
2023/08/09 09:22:29;;;;;;;3.40;1.97;;;18.50;83.30;;;;;;5056384;28;20433;-69
2023/08/09 09:24:59;;;;;;;3.03;1.40;;;18.50;84.20;;;;;;5056676;28;20437;-68
2023/08/09 09:27:32;;;;;;;4.63;2.20;;;18.50;84.60;;;;;;5056316;28;20911;-68
2023/08/09 09:30:04;;;;;;;6.00;1.90;;;18.50;83.20;;;;;;5056654;28;20458;-68
2023/08/09 09:32:33;;;;;;;3.10;2.07;;;18.60;83.10;;;;;;5056548;28;20423;-68
2023/08/09 09:35:00;;;;;;;3.80;1.90;;;18.60;83.80;;;;;;5056396;28;20472;-68
2023/08/09 09:37:28;;;;;;;3.70;2.00;;;18.60;83.60;;;;;;5056477;28;20472;-68
2023/08/09 09:39:55;;;;;;;3.80;2.20;;;18.70;81.50;;;;;;5055809;28;20482;-68
2023/08/09 09:42:32;;;;;;;3.60;2.20;;;18.60;82.20;;;;;;5056409;28;20476;-68
2023/08/09 09:45:07;;;;;;;3.93;2.00;;;18.50;81.10;;;;;;5056127;28;20444;-68
2023/08/09 09:47:38;;;;;;;5.83;1.97;;;18.50;80.90;;;;;;5056122;28;20443;-68
2023/08/09 09:50:07;;;;;;;3.40;1.93;;;18.60;80.80;;;;;;5056355;28;20484;-68
2023/08/09 09:52:36;;;;;;;3.53;1.70;;;18.60;80.90;;;;;;5056141;28;20436;-68
2023/08/09 09:55:03;;;;;;;3.73;1.83;;;18.70;81.50;;;;;;5055622;28;21004;-68
2023/08/09 09:57:31;;;;;;;4.07;2.30;;;18.60;80.50;;;;;;5055972;28;20867;-68
2023/08/09 10:00:00;;;;;;;5.00;1.80;;;18.60;79.20;;;;;;5055865;28;20470;-68
2023/08/09 10:02:31;;;;;;;2.60;1.70;;;18.60;79.20;;;;;;5055908;28;20445;-68
2023/08/09 10:05:00;;;;;;;3.40;2.00;;;18.60;79.60;;;;;;5055965;28;20410;-68
2023/08/09 10:07:30;;;;;;;3.17;1.87;;;18.60;79.00;;;;;;5055866;28;20462;-68
2023/08/09 10:10:01;;;;;;;3.30;1.80;;;18.60;79.10;;;;;;5055400;28;20494;-68
2023/08/09 10:12:28;;;;;;;5.73;2.20;;;18.50;78.10;;;;;;5055446;28;20461;-68
2023/08/09 10:14:57;;;;;;;5.50;2.20;;;18.50;79.00;;;;;;5055677;28;20516;-68
2023/08/09 10:17:26;;;;;;;3.60;1.63;;;18.40;77.90;;;;;;5055577;28;20473;-68
2023/08/09 10:19:54;;;;;;;6.00;2.10;;;18.50;79.20;;;;;;5055619;28;20493;-68
2023/08/09 10:22:22;;;;;;;4.47;1.60;;;18.50;79.60;;;;;;5055439;28;20441;-68
2023/08/09 10:24:51;;;;;;;4.27;2.00;;;18.50;78.80;;;;;;5054501;28;20478;-68
2023/08/09 10:27:53;;;;;;;3.70;2.20;;;18.50;79.70;;;;;;5055410;28;20431;-68
2023/08/09 10:30:28;;;;;;;2.70;1.63;;;18.60;80.60;;;;;;5055521;28;20433;-68
2023/08/09 10:32:56;;;;;;;4.10;1.93;;;18.60;79.60;;;;;;5055495;28;20741;-68
2023/08/09 10:35:45;;;;;;;3.17;1.97;;;18.60;79.40;;;;;;5055592;28;20819;-68
2023/08/09 10:38:14;;;;;;;4.53;2.13;;;18.60;79.40;;;;;;5055243;28;20835;-68
2023/08/09 10:40:42;;;;;;;4.17;2.73;;;18.60;78.70;;;;;;5055112;28;20480;-68
2023/08/09 10:43:09;;;;;;;4.00;2.27;;;18.60;77.90;;;;;;5055135;28;20434;-68
2023/08/09 10:45:38;;;;;;;3.53;1.87;;;18.60;78.90;;;;;;5054802;28;20482;-68
2023/08/09 10:48:21;;;;;;;4.20;1.83;;;18.60;79.50;;;;;;5055012;28;20444;-68
2023/08/09 10:51:00;;;;;;;4.67;1.87;;;18.60;79.10;;;;;;5055049;28;20423;-68
2023/08/09 10:53:27;;;;;;;3.60;1.90;;;18.70;80.10;;;;;;5054996;28;20457;-68
2023/08/09 10:55:57;;;;;;;5.27;2.03;;;18.60;78.70;;;;;;5054917;28;20783;-68
2023/08/09 10:58:28;;;;;;;4.50;2.03;;;18.60;79.20;;;;;;5054881;28;20445;-68
2023/08/09 11:00:56;;;;;;;5.47;1.93;;;18.70;78.70;;;;;;5054518;28;20462;-68
2023/08/09 11:03:23;;;;;;;4.60;2.00;;;18.70;78.60;;;;;;5054842;28;20850;-68
2023/08/09 11:05:52;;;;;;;4.80;2.37;;;18.70;78.20;;;;;;5054402;28;20450;-68
2023/08/09 11:08:19;;;;;;;8.43;2.53;;;18.70;78.70;;;;;;5054729;28;20439;-68
2023/08/09 11:10:48;;;;;;;4.07;2.30;;;18.80;78.60;;;;;;5054464;28;20859;-68
2023/08/09 11:13:16;;;;;;;5.30;2.50;;;18.80;78.00;;;;;;5054930;28;20441;-69
2023/08/09 11:15:45;;;;;;;5.37;2.20;;;18.80;77.90;;;;;;5054325;28;20531;-69
2023/08/09 11:18:13;;;;;;;4.77;2.37;;;18.80;77.90;;;;;;5054454;28;20434;-68
2023/08/09 11:20:40;;;;;;;4.00;1.97;;;18.90;79.10;;;;;;5054124;28;20565;-68
2023/08/09 11:23:07;;;;;;;6.97;2.90;;;18.90;78.20;;;;;;5054384;28;20521;-68
2023/08/09 11:25:34;;;;;;;5.10;1.80;;;18.90;77.10;;;;;;5054378;28;20824;-68
2023/08/09 11:28:04;;;;;;;4.63;2.57;;;18.90;77.20;;;;;;5054259;28;20480;-68
2023/08/09 11:30:33;;;;;;;5.53;1.80;;;18.90;77.60;;;;;;5053971;28;20426;-68
2023/08/09 11:33:02;;;;;;;7.43;2.23;;;18.80;76.60;;;;;;5054210;28;20478;-68
2023/08/09 11:35:39;;;;;;;4.60;2.40;;;18.80;77.00;;;;;;5053783;28;20476;-68
2023/08/09 11:38:09;;;;;;;7.33;1.90;;;18.90;77.70;;;;;;5053568;28;20485;-69
2023/08/09 11:40:41;;;;;;;4.33;2.03;;;19.00;76.60;;;;;;5054076;28;20470;-68
2023/08/09 11:43:12;;;;;;;7.93;2.47;;;19.10;76.20;;;;;;5053796;28;20837;-68
2023/08/09 11:45:48;;;;;;;4.07;2.07;;;19.20;77.40;;;;;;5053996;28;20424;-68
2023/08/09 11:48:27;;;;;;;4.10;2.30;;;19.20;77.30;;;;;;5053927;28;20809;-68
2023/08/09 11:51:06;;;;;;;3.43;1.97;;;19.30;74.80;;;;;;5053735;28;20897;-68
2023/08/09 11:53:35;;;;;;;5.40;1.93;;;19.40;75.30;;;;;;5053859;28;20463;-68
2023/08/09 11:56:04;;;;;;;3.63;2.63;;;19.50;74.00;;;;;;5053857;28;20430;-68
2023/08/09 11:58:34;;;;;;;5.63;1.53;;;19.60;73.90;;;;;;5053457;28;20441;-68
2023/08/09 12:01:11;;;;;;;4.73;1.83;;;19.70;74.80;;;;;;5053340;28;20466;-69
2023/08/09 12:03:38;;;;;;;6.20;1.80;;;19.80;74.60;;;;;;5053502;28;20510;-68
2023/08/09 12:06:07;;;;;;;5.13;1.73;;;19.90;74.30;;;;;;5053741;28;20439;-68
2023/08/09 12:08:35;;;;;;;3.23;1.47;;;19.90;71.80;;;;;;5053627;28;20431;-71
2023/08/09 12:11:02;;;;;;;3.77;2.73;;;19.90;72.20;;;;;;5053596;28;20499;-68
2023/08/09 12:13:29;;;;;;;4.60;2.23;;;20.00;73.40;;;;;;5053577;28;20953;-68
2023/08/09 12:15:56;;;;;;;2.70;1.60;;;20.20;72.10;;;;;;5053221;28;20981;-68
2023/08/09 12:18:23;;;;;;;3.47;1.83;;;20.20;71.80;;;;;;5053514;28;20782;-68
2023/08/09 12:20:50;;;;;;;5.90;1.90;;;20.40;69.60;;;;;;5053489;28;20575;-68
2023/08/09 12:23:19;;;;;;;3.33;1.47;;;20.30;69.50;;;;;;5053175;28;20476;-69
2023/08/09 12:25:46;;;;;;;4.30;2.33;;;20.40;68.70;;;;;;5053427;28;20495;-68
2023/08/09 12:28:13;;;;;;;3.87;2.13;;;20.50;69.60;;;;;;5053198;28;20478;-68
2023/08/09 12:30:39;;;;;;;5.43;1.93;;;20.60;71.00;;;;;;5053447;28;20467;-68
2023/08/09 12:33:08;;;;;;;4.40;2.03;;;20.80;70.10;;;;;;5053327;28;20519;-68
2023/08/09 12:35:35;;;;;;;2.60;1.40;;;20.90;70.80;;;;;;5053091;28;20470;-68
2023/08/09 12:38:02;;;;;;;6.23;2.07;;;21.10;69.50;;;;;;5053029;28;20531;-73
2023/08/09 12:40:30;;;;;;;3.60;1.47;;;21.20;68.70;;;;;;5053265;28;20505;-68
2023/08/09 12:42:57;;;;;;;5.13;2.37;;;21.30;68.20;;;;;;5053335;28;20834;-68
2023/08/09 12:45:24;;;;;;;5.20;1.70;;;21.40;66.60;;;;;;5053250;28;20472;-68
2023/08/09 12:47:51;;;;;;;3.20;1.70;;;21.40;67.50;;;;;;5054819;28;20439;-68
2023/08/09 12:50:19;;;;;;;4.37;1.53;;;21.60;68.40;;;;;;5057331;28;20469;-68
2023/08/09 12:52:46;;;;;;;4.40;1.50;;;21.60;68.80;;;;;;5057186;28;20435;-69